Time;durP1;ratioP1;P1;durP2;ratioP2;P2;SDS_P1;SDS_P2;PMS_P1;PMS_P2;Temp;Humidity;BMP_temperature;BMP_pressure;BME280_temperature;BME280_humidity;BME280_pressure;Samples;Min_cycle;Max_cycle;Signal;HPM_P1;HPM_P2
2022/01/31 00:01:07;;;;;;;19.03;4.67;;;4.50;99.90;;;;;;629504;224;26525;-73
2022/01/31 00:03:35;;;;;;;18.63;4.90;;;4.60;99.90;;;;;;629460;228;26527;-74
2022/01/31 00:06:02;;;;;;;15.33;4.00;;;4.60;99.90;;;;;;629183;228;26586;-74
2022/01/31 00:08:30;;;;;;;13.50;3.87;;;4.60;99.90;;;;;;629220;228;26507;-73
2022/01/31 00:10:57;;;;;;;19.53;4.53;;;4.60;99.90;;;;;;626243;226;26814;-74
2022/01/31 00:13:34;;;;;;;14.17;4.53;;;4.50;99.90;;;;;;628632;228;26547;-74
2022/01/31 00:15:55;;;;;;;15.00;4.87;;;4.50;99.90;;;;;;629050;228;26531;-74
2022/01/31 00:18:19;;;;;;;12.50;4.13;;;4.50;99.90;;;;;;629077;228;26757;-74
2022/01/31 00:20:46;;;;;;;25.17;6.10;;;4.60;99.90;;;;;;628744;223;26546;-74
2022/01/31 00:23:14;;;;;;;14.40;4.33;;;4.60;99.90;;;;;;628814;229;26779;-75
2022/01/31 00:25:42;;;;;;;17.87;4.60;;;4.60;99.90;;;;;;628876;228;26610;-73
2022/01/31 00:28:10;;;;;;;10.97;4.07;;;4.60;99.90;;;;;;628253;225;26602;-73
2022/01/31 00:30:38;;;;;;;17.07;4.97;;;4.60;99.90;;;;;;628264;226;26583;-73
2022/01/31 00:33:06;;;;;;;14.87;5.30;;;4.60;99.90;;;;;;633273;225;26612;-73
2022/01/31 00:35:34;;;;;;;18.70;4.57;;;4.40;99.90;;;;;;635324;226;26903;-73
2022/01/31 00:38:02;;;;;;;20.37;4.17;;;4.40;99.90;;;;;;635292;226;26773;-73
2022/01/31 00:40:30;;;;;;;19.47;4.87;;;4.40;99.90;;;;;;634562;225;26829;-73
2022/01/31 00:42:57;;;;;;;16.60;4.37;;;4.40;99.90;;;;;;628870;224;26618;-73
2022/01/31 00:45:27;;;;;;;16.47;4.93;;;4.40;99.90;;;;;;628892;228;26610;-73
2022/01/31 00:47:59;;;;;;;22.93;6.30;;;4.30;99.90;;;;;;629260;228;26809;-73
2022/01/31 00:50:19;;;;;;;20.70;5.37;;;4.30;99.90;;;;;;628369;225;26552;-73
2022/01/31 00:52:45;;;;;;;17.53;5.60;;;4.30;99.90;;;;;;625955;229;26791;-73
2022/01/31 00:55:13;;;;;;;17.13;5.70;;;4.20;99.90;;;;;;626006;228;26503;-74
2022/01/31 00:57:41;;;;;;;24.17;5.20;;;4.20;99.90;;;;;;627041;227;26554;-74
2022/01/31 01:00:09;;;;;;;21.63;5.57;;;4.20;99.90;;;;;;628017;226;26516;-75
2022/01/31 01:02:36;;;;;;;16.80;4.57;;;4.20;99.90;;;;;;630331;228;26583;-71
2022/01/31 01:05:04;;;;;;;20.27;5.03;;;4.20;99.90;;;;;;630229;228;26557;-70
2022/01/31 01:07:31;;;;;;;16.80;5.37;;;4.10;99.90;;;;;;629966;228;26560;-70
2022/01/31 01:10:00;;;;;;;24.30;4.83;;;4.20;99.90;;;;;;633102;225;27187;-70
2022/01/31 01:12:27;;;;;;;21.33;5.73;;;4.20;99.90;;;;;;637483;224;26851;-70
2022/01/31 01:14:54;;;;;;;20.53;5.37;;;4.20;99.90;;;;;;635923;226;26609;-70
2022/01/31 01:17:21;;;;;;;20.17;6.40;;;4.10;99.90;;;;;;635595;226;26809;-70
2022/01/31 01:19:49;;;;;;;18.00;4.70;;;3.90;99.90;;;;;;632093;225;26587;-71
2022/01/31 01:22:18;;;;;;;24.10;5.43;;;3.80;99.90;;;;;;629191;225;26566;-70
2022/01/31 01:24:48;;;;;;;18.23;4.70;;;3.80;99.90;;;;;;629218;228;26523;-71
2022/01/31 01:27:14;;;;;;;27.50;5.63;;;3.80;99.90;;;;;;628980;226;26507;-69
2022/01/31 01:29:40;;;;;;;23.47;5.03;;;3.80;99.90;;;;;;627633;226;26527;-69
2022/01/31 01:32:09;;;;;;;18.50;4.80;;;3.80;99.90;;;;;;625941;228;26862;-69
2022/01/31 01:34:35;;;;;;;27.20;5.80;;;3.70;99.90;;;;;;627533;225;26558;-69
2022/01/31 01:37:03;;;;;;;23.67;6.00;;;3.80;99.90;;;;;;635350;226;26774;-69
2022/01/31 01:39:29;;;;;;;21.57;5.80;;;3.80;99.90;;;;;;635258;226;26771;-69
2022/01/31 01:41:56;;;;;;;21.27;4.83;;;3.80;99.90;;;;;;635221;226;26597;-69
2022/01/31 01:44:35;;;;;;;26.13;5.90;;;3.80;99.90;;;;;;635304;221;26793;-69
2022/01/31 01:47:03;;;;;;;30.50;5.67;;;3.80;99.90;;;;;;635272;226;26529;-69
2022/01/31 01:49:30;;;;;;;25.03;5.37;;;3.90;99.90;;;;;;635301;226;26544;-69
2022/01/31 01:51:58;;;;;;;29.80;5.67;;;4.00;99.90;;;;;;626757;226;26586;-69
2022/01/31 01:54:25;;;;;;;23.07;5.27;;;4.00;99.90;;;;;;628600;228;26592;-69
2022/01/31 01:56:53;;;;;;;24.67;6.13;;;4.00;99.90;;;;;;628934;228;26588;-69
2022/01/31 01:59:21;;;;;;;26.13;5.97;;;4.10;99.90;;;;;;628439;229;26564;-69
2022/01/31 02:01:48;;;;;;;19.57;7.10;;;4.00;99.90;;;;;;625990;229;26769;-69
2022/01/31 02:04:16;;;;;;;21.43;5.07;;;4.00;99.90;;;;;;625984;228;26555;-69
2022/01/31 02:06:43;;;;;;;18.27;5.60;;;4.00;99.90;;;;;;625969;229;26787;-69
2022/01/31 02:09:10;;;;;;;21.37;5.17;;;4.00;99.90;;;;;;629885;225;26570;-69
2022/01/31 02:11:37;;;;;;;19.87;5.83;;;4.00;99.90;;;;;;636074;226;27139;-69
2022/01/31 02:14:05;;;;;;;20.77;4.93;;;4.00;99.90;;;;;;626580;229;26510;-69
2022/01/31 02:16:33;;;;;;;15.23;5.70;;;4.00;99.90;;;;;;626558;229;26606;-69
2022/01/31 02:19:01;;;;;;;21.03;5.13;;;4.00;99.90;;;;;;629539;226;26771;-69
2022/01/31 02:21:28;;;;;;;20.57;5.53;;;4.00;99.90;;;;;;626067;228;26649;-69
2022/01/31 02:23:55;;;;;;;25.00;5.27;;;4.00;99.90;;;;;;626209;228;26854;-69
2022/01/31 02:26:22;;;;;;;26.53;5.83;;;4.00;99.90;;;;;;626082;228;26594;-69
2022/01/31 02:28:49;;;;;;;22.50;5.83;;;4.00;99.90;;;;;;625788;228;26619;-69
2022/01/31 02:31:17;;;;;;;23.33;5.97;;;4.10;99.90;;;;;;625755;230;26618;-69
2022/01/31 02:33:45;;;;;;;23.73;5.70;;;4.00;99.90;;;;;;625852;229;26594;-69
2022/01/31 02:36:13;;;;;;;19.10;5.20;;;4.00;99.90;;;;;;625902;229;26590;-69
2022/01/31 02:38:40;;;;;;;26.20;5.93;;;4.00;99.90;;;;;;625904;229;26611;-69
2022/01/31 02:41:08;;;;;;;20.63;5.53;;;4.10;99.90;;;;;;625931;228;26583;-69
2022/01/31 02:43:36;;;;;;;24.97;6.17;;;4.10;99.90;;;;;;626010;229;26546;-69
2022/01/31 02:46:03;;;;;;;26.33;6.20;;;4.10;99.90;;;;;;625654;229;26716;-69
2022/01/31 02:48:34;;;;;;;19.57;4.37;;;4.10;99.90;;;;;;625622;229;26527;-69
2022/01/31 02:50:58;;;;;;;15.23;5.10;;;4.10;99.90;;;;;;625563;228;26764;-69
2022/01/31 02:53:27;;;;;;;22.93;5.17;;;4.10;99.90;;;;;;627214;229;26524;-69
2022/01/31 02:55:52;;;;;;;19.57;5.70;;;4.10;99.90;;;;;;628948;228;27284;-69
2022/01/31 02:58:20;;;;;;;18.27;4.97;;;4.10;99.90;;;;;;628767;228;26604;-69
2022/01/31 03:00:48;;;;;;;20.83;6.33;;;4.00;99.90;;;;;;628904;228;26604;-69
2022/01/31 03:03:16;;;;;;;22.63;5.00;;;4.00;99.90;;;;;;628933;228;26626;-69
2022/01/31 03:05:43;;;;;;;22.83;5.40;;;4.00;99.90;;;;;;628909;228;26809;-69
2022/01/31 03:08:10;;;;;;;22.83;5.40;;;4.00;99.90;;;;;;628939;228;26547;-69
2022/01/31 03:10:38;;;;;;;21.47;4.90;;;3.90;99.90;;;;;;628891;228;26841;-69
2022/01/31 03:13:05;;;;;;;20.63;4.80;;;3.90;99.90;;;;;;626570;228;26591;-69
2022/01/31 03:15:32;;;;;;;25.60;6.10;;;4.00;99.90;;;;;;625573;228;26777;-68
2022/01/31 03:18:00;;;;;;;23.03;5.60;;;4.00;99.90;;;;;;625317;230;26556;-68
2022/01/31 03:20:28;;;;;;;21.53;6.20;;;4.00;99.90;;;;;;626256;227;26639;-68
2022/01/31 03:22:56;;;;;;;24.47;5.73;;;4.10;99.90;;;;;;626991;229;26578;-68
2022/01/31 03:25:24;;;;;;;23.57;6.40;;;4.10;99.90;;;;;;626638;228;26612;-68
2022/01/31 03:27:52;;;;;;;23.63;5.37;;;4.00;99.90;;;;;;626497;228;26558;-68
2022/01/31 03:30:21;;;;;;;21.03;5.77;;;4.00;99.90;;;;;;626279;228;26554;-68
2022/01/31 03:32:49;;;;;;;24.70;5.93;;;4.00;99.90;;;;;;626126;229;26586;-68
2022/01/31 03:35:17;;;;;;;20.47;5.97;;;4.00;99.90;;;;;;626201;228;26563;-68
2022/01/31 03:37:44;;;;;;;16.93;4.83;;;4.10;99.90;;;;;;626155;230;26626;-68
2022/01/31 03:40:13;;;;;;;15.80;4.90;;;4.10;99.90;;;;;;625927;228;26588;-68
2022/01/31 03:42:40;;;;;;;16.60;5.23;;;4.10;99.90;;;;;;625885;228;26613;-68
2022/01/31 03:45:08;;;;;;;22.37;4.87;;;4.10;99.90;;;;;;625973;228;27443;-68
2022/01/31 03:47:42;;;;;;;26.57;6.03;;;4.10;99.90;;;;;;625822;229;26589;-69
2022/01/31 03:50:02;;;;;;;25.23;6.03;;;4.10;99.90;;;;;;625901;228;27089;-69
2022/01/31 03:52:30;;;;;;;26.67;5.77;;;4.10;99.90;;;;;;626251;228;26932;-69
2022/01/31 03:54:58;;;;;;;27.40;6.00;;;4.10;99.90;;;;;;629215;228;27198;-69
2022/01/31 03:57:25;;;;;;;26.03;5.93;;;4.10;99.90;;;;;;628969;228;26591;-69
2022/01/31 03:59:53;;;;;;;18.97;5.20;;;4.10;99.90;;;;;;628880;223;26602;-69
2022/01/31 04:02:21;;;;;;;20.30;5.77;;;4.10;99.90;;;;;;628874;229;26622;-69
2022/01/31 04:04:49;;;;;;;25.10;6.00;;;4.00;99.90;;;;;;628840;228;26639;-69
2022/01/31 04:07:18;;;;;;;20.37;5.73;;;4.00;99.90;;;;;;628857;229;26618;-69
2022/01/31 04:09:46;;;;;;;18.00;5.60;;;3.90;99.90;;;;;;628866;228;27274;-69
2022/01/31 04:12:14;;;;;;;27.70;6.30;;;3.90;99.90;;;;;;627737;228;26594;-69
2022/01/31 04:14:41;;;;;;;24.20;5.90;;;3.90;99.90;;;;;;625618;230;27075;-69
2022/01/31 04:17:10;;;;;;;29.90;6.80;;;3.90;99.90;;;;;;625601;229;26563;-69
2022/01/31 04:19:38;;;;;;;26.97;8.33;;;3.90;99.90;;;;;;625419;229;26568;-69
2022/01/31 04:22:09;;;;;;;37.63;7.73;;;3.90;99.90;;;;;;625495;228;26551;-69
2022/01/31 04:24:34;;;;;;;25.07;7.33;;;3.80;99.90;;;;;;625341;229;26550;-69
2022/01/31 04:27:06;;;;;;;21.67;6.73;;;3.80;99.90;;;;;;625481;229;26539;-69
2022/01/31 04:29:31;;;;;;;23.23;5.63;;;3.80;99.90;;;;;;625227;229;26527;-69
2022/01/31 04:31:57;;;;;;;20.70;5.73;;;3.80;99.90;;;;;;626203;227;26892;-69
2022/01/31 04:34:24;;;;;;;25.47;6.07;;;3.80;99.90;;;;;;627140;227;26542;-69
2022/01/31 04:36:51;;;;;;;30.00;7.20;;;3.80;99.90;;;;;;626801;228;26833;-69
2022/01/31 04:39:19;;;;;;;25.00;6.00;;;3.80;99.90;;;;;;626607;228;26533;-69
2022/01/31 04:41:46;;;;;;;23.60;5.47;;;3.80;99.90;;;;;;626388;229;26816;-69
2022/01/31 04:44:14;;;;;;;21.87;5.80;;;3.80;99.90;;;;;;626237;228;26579;-69
2022/01/31 04:46:43;;;;;;;26.20;5.10;;;3.80;99.90;;;;;;626288;228;26611;-69
2022/01/31 04:49:09;;;;;;;25.83;6.73;;;3.80;99.90;;;;;;626205;228;26602;-69
2022/01/31 04:51:36;;;;;;;31.17;6.60;;;3.90;99.90;;;;;;625911;229;26596;-69
2022/01/31 04:54:03;;;;;;;20.30;6.20;;;3.90;99.90;;;;;;628387;228;26796;-69
2022/01/31 04:56:30;;;;;;;27.40;6.43;;;3.80;99.90;;;;;;629171;228;26531;-69
2022/01/31 04:58:58;;;;;;;27.30;6.33;;;3.80;99.90;;;;;;629146;228;26871;-69
2022/01/31 05:01:27;;;;;;;21.07;6.27;;;3.80;99.90;;;;;;629240;224;26570;-69
2022/01/31 05:03:53;;;;;;;26.77;5.20;;;3.80;99.90;;;;;;629203;228;26542;-69
2022/01/31 05:06:27;;;;;;;24.17;6.20;;;3.80;99.90;;;;;;629222;228;26531;-69
2022/01/31 05:08:48;;;;;;;22.10;5.07;;;3.80;99.90;;;;;;628189;228;26842;-69
2022/01/31 05:11:16;;;;;;;28.67;6.17;;;3.80;99.90;;;;;;628871;228;26591;-69
2022/01/31 05:13:42;;;;;;;26.07;5.97;;;3.80;99.90;;;;;;625659;229;26769;-69
2022/01/31 05:16:09;;;;;;;27.33;5.83;;;3.80;99.90;;;;;;625581;228;26528;-69
2022/01/31 05:18:38;;;;;;;27.80;7.83;;;3.80;99.90;;;;;;625559;228;26547;-69
2022/01/31 05:21:08;;;;;;;22.87;6.00;;;3.80;99.90;;;;;;625530;230;26556;-69
2022/01/31 05:23:34;;;;;;;29.80;7.17;;;3.80;99.90;;;;;;625480;229;26536;-68
2022/01/31 05:26:02;;;;;;;27.07;5.37;;;3.80;99.90;;;;;;625539;228;26528;-68
2022/01/31 05:28:30;;;;;;;24.53;5.87;;;3.80;99.90;;;;;;625534;228;26566;-68
2022/01/31 05:30:57;;;;;;;22.67;6.33;;;3.80;99.90;;;;;;625616;229;26547;-68
2022/01/31 05:33:25;;;;;;;29.47;6.17;;;3.80;99.90;;;;;;625617;229;26794;-68
2022/01/31 05:35:54;;;;;;;19.07;5.10;;;3.80;99.90;;;;;;625552;229;26558;-68
2022/01/31 05:38:20;;;;;;;23.00;5.90;;;3.70;99.90;;;;;;625420;229;26805;-68
2022/01/31 05:40:47;;;;;;;26.67;6.40;;;3.80;99.90;;;;;;625606;230;26548;-68
2022/01/31 05:43:16;;;;;;;27.23;6.37;;;3.80;99.90;;;;;;626060;227;27201;-68
2022/01/31 05:45:42;;;;;;;19.93;5.80;;;3.70;99.90;;;;;;627009;229;26536;-68
2022/01/31 05:48:10;;;;;;;22.90;5.20;;;3.80;99.90;;;;;;626673;229;26616;-68
2022/01/31 05:50:38;;;;;;;22.00;5.57;;;3.80;99.90;;;;;;626451;229;26529;-68
2022/01/31 05:53:05;;;;;;;23.90;5.87;;;3.80;99.90;;;;;;627532;226;26587;-68
2022/01/31 05:55:33;;;;;;;18.70;5.87;;;3.80;99.90;;;;;;629525;228;26727;-68
2022/01/31 05:58:00;;;;;;;18.17;5.47;;;3.80;99.90;;;;;;629448;228;26795;-68
2022/01/31 06:00:27;;;;;;;23.73;5.40;;;3.80;99.90;;;;;;629520;228;26539;-69
2022/01/31 06:02:55;;;;;;;26.30;6.30;;;3.80;99.90;;;;;;629162;228;26798;-68
2022/01/31 06:05:24;;;;;;;23.17;5.73;;;3.80;99.90;;;;;;629124;228;26540;-68
2022/01/31 06:07:52;;;;;;;25.20;6.57;;;3.80;99.90;;;;;;629181;228;26547;-69
2022/01/31 06:10:22;;;;;;;21.83;6.20;;;3.80;99.90;;;;;;629192;228;26550;-68
2022/01/31 06:12:46;;;;;;;29.33;6.33;;;3.80;99.90;;;;;;627076;228;26547;-69
2022/01/31 06:15:14;;;;;;;22.37;6.47;;;3.80;99.90;;;;;;625893;230;26600;-66
2022/01/31 06:17:42;;;;;;;19.47;5.77;;;3.80;99.90;;;;;;625875;229;26603;-66
2022/01/31 06:20:09;;;;;;;20.23;6.53;;;3.80;99.90;;;;;;625663;228;26572;-66
2022/01/31 06:22:43;;;;;;;25.23;6.40;;;3.80;99.90;;;;;;631483;225;26577;-66
2022/01/31 06:25:12;;;;;;;20.27;6.00;;;3.80;99.90;;;;;;636343;225;26552;-67
2022/01/31 06:27:37;;;;;;;24.30;6.20;;;3.80;99.90;;;;;;630298;226;26814;-66
2022/01/31 06:30:07;;;;;;;22.00;6.03;;;3.80;99.90;;;;;;628784;228;26620;-66
2022/01/31 06:32:35;;;;;;;25.70;6.73;;;3.80;99.90;;;;;;624295;226;26594;-67
2022/01/31 06:35:02;;;;;;;23.10;6.40;;;3.80;99.90;;;;;;631772;225;26793;-66
2022/01/31 06:37:29;;;;;;;19.33;5.97;;;3.80;99.90;;;;;;628922;226;26532;-66
2022/01/31 06:39:56;;;;;;;25.40;6.80;;;3.80;99.90;;;;;;628705;223;26777;-66
2022/01/31 06:42:23;;;;;;;29.03;6.23;;;3.80;99.90;;;;;;628407;225;26625;-66
2022/01/31 06:44:51;;;;;;;23.03;6.83;;;3.80;99.90;;;;;;627988;226;26832;-66
2022/01/31 06:47:19;;;;;;;22.10;6.23;;;3.80;99.90;;;;;;631125;225;26590;-66
2022/01/31 06:49:46;;;;;;;18.37;6.03;;;3.80;99.90;;;;;;627853;223;26544;-67
2022/01/31 06:52:14;;;;;;;27.80;6.63;;;3.70;99.90;;;;;;632622;225;26582;-67
2022/01/31 06:54:43;;;;;;;30.90;6.43;;;3.80;99.90;;;;;;629482;225;26596;-67
2022/01/31 06:57:08;;;;;;;20.13;6.60;;;3.80;99.90;;;;;;630854;226;26947;-67
2022/01/31 06:59:35;;;;;;;21.93;6.10;;;3.80;99.90;;;;;;629138;226;26598;-67
2022/01/31 07:02:04;;;;;;;24.83;6.80;;;3.80;99.90;;;;;;629055;226;26640;-66
2022/01/31 07:04:32;;;;;;;20.73;5.83;;;3.80;99.90;;;;;;628388;226;26586;-67
2022/01/31 07:07:00;;;;;;;25.20;6.07;;;3.80;99.90;;;;;;627595;228;26542;-67
2022/01/31 07:09:27;;;;;;;27.07;6.10;;;3.70;99.90;;;;;;633564;226;26612;-67
2022/01/31 07:11:59;;;;;;;24.03;6.43;;;3.80;99.90;;;;;;627526;226;26558;-67
2022/01/31 07:14:31;;;;;;;21.43;6.20;;;3.80;99.90;;;;;;629432;225;26592;-67
2022/01/31 07:17:00;;;;;;;21.37;7.17;;;3.80;99.90;;;;;;634077;225;26580;-66
2022/01/31 07:19:30;;;;;;;26.00;6.87;;;3.70;99.90;;;;;;627895;226;26590;-66
2022/01/31 07:21:54;;;;;;;26.73;5.97;;;3.70;99.90;;;;;;630574;223;26608;-67
2022/01/31 07:24:30;;;;;;;25.50;6.70;;;3.70;99.90;;;;;;631140;226;26537;-66
2022/01/31 07:26:50;;;;;;;25.57;6.93;;;3.70;99.90;;;;;;636436;225;26637;-68
2022/01/31 07:29:17;;;;;;;26.57;6.63;;;3.70;99.90;;;;;;629657;225;26807;-68
2022/01/31 07:31:45;;;;;;;25.77;7.20;;;3.70;99.90;;;;;;628448;224;26588;-68
2022/01/31 07:34:12;;;;;;;26.37;6.17;;;3.70;99.90;;;;;;626437;228;26786;-68
2022/01/31 07:36:40;;;;;;;20.57;6.77;;;3.80;99.90;;;;;;631613;226;26638;-68
2022/01/31 07:39:07;;;;;;;24.67;6.93;;;3.80;99.90;;;;;;629202;226;26854;-68
2022/01/31 07:41:34;;;;;;;22.87;6.33;;;3.80;99.90;;;;;;628211;228;26624;-68
2022/01/31 07:44:01;;;;;;;32.83;7.40;;;3.80;99.90;;;;;;626144;227;26827;-68
2022/01/31 07:46:29;;;;;;;16.17;5.23;;;3.80;99.90;;;;;;627703;228;26574;-68
2022/01/31 07:48:58;;;;;;;26.50;6.57;;;3.80;99.90;;;;;;627312;229;26545;-68
2022/01/31 07:51:25;;;;;;;25.37;6.23;;;3.80;99.90;;;;;;626271;229;26852;-68
2022/01/31 07:53:52;;;;;;;23.53;6.03;;;3.80;99.90;;;;;;625796;229;26589;-68
2022/01/31 07:56:20;;;;;;;20.73;7.07;;;3.90;99.90;;;;;;627790;228;26582;-68
2022/01/31 07:58:47;;;;;;;24.93;6.83;;;3.90;99.90;;;;;;627070;229;26570;-68
2022/01/31 08:01:15;;;;;;;24.40;6.23;;;3.90;99.90;;;;;;628227;226;26593;-68
2022/01/31 08:03:45;;;;;;;28.00;6.80;;;4.00;99.90;;;;;;634854;225;26575;-68
2022/01/31 08:06:11;;;;;;;22.53;6.57;;;4.00;99.90;;;;;;626480;226;26781;-69
2022/01/31 08:08:41;;;;;;;23.03;6.47;;;4.00;99.90;;;;;;630014;227;26596;-69
2022/01/31 08:11:08;;;;;;;22.60;6.00;;;4.00;99.90;;;;;;627923;227;26550;-68
2022/01/31 08:13:35;;;;;;;21.30;5.83;;;4.00;99.90;;;;;;634686;226;26581;-67
2022/01/31 08:16:09;;;;;;;18.57;5.57;;;4.00;99.90;;;;;;632808;226;26618;-68
2022/01/31 08:18:30;;;;;;;24.57;6.43;;;4.10;99.90;;;;;;628822;228;26563;-68
2022/01/31 08:20:58;;;;;;;22.47;6.23;;;4.10;99.90;;;;;;627600;228;26582;-68
2022/01/31 08:23:25;;;;;;;23.23;6.27;;;4.10;99.90;;;;;;633430;226;26580;-68
2022/01/31 08:25:53;;;;;;;26.27;6.83;;;4.10;99.90;;;;;;627890;225;26627;-68
2022/01/31 08:28:29;;;;;;;16.27;5.77;;;4.10;99.90;;;;;;634588;225;26597;-69
2022/01/31 08:30:56;;;;;;;23.10;7.00;;;4.10;99.90;;;;;;629956;226;26868;-70
2022/01/31 08:35:50;;;;;;;24.57;6.53;;;4.20;99.90;;;;;;633940;226;26558;-70
2022/01/31 08:38:16;;;;;;;24.40;6.87;;;4.30;99.90;;;;;;628454;226;26784;-70
2022/01/31 08:40:43;;;;;;;26.27;7.03;;;4.30;99.90;;;;;;635551;225;26559;-70
2022/01/31 08:43:12;;;;;;;19.67;6.20;;;4.30;99.90;;;;;;635400;226;26857;-70
2022/01/31 08:45:38;;;;;;;22.63;6.47;;;4.30;99.90;;;;;;627033;226;26539;-67
2022/01/31 08:48:05;;;;;;;24.10;6.50;;;4.40;99.90;;;;;;628714;225;26521;-70
2022/01/31 08:50:33;;;;;;;26.77;6.40;;;4.40;99.90;;;;;;633710;225;26580;-70
2022/01/31 08:53:01;;;;;;;28.27;6.50;;;4.50;99.90;;;;;;629640;226;26611;-71
2022/01/31 08:55:29;;;;;;;20.20;6.23;;;4.60;99.90;;;;;;628630;221;26542;-72
2022/01/31 08:57:57;;;;;;;22.57;6.47;;;4.50;99.90;;;;;;628451;228;26645;-72
2022/01/31 09:00:33;;;;;;;18.93;6.43;;;4.50;99.90;;;;;;625537;229;26552;-73
2022/01/31 09:03:02;;;;;;;27.53;7.03;;;4.60;99.90;;;;;;624973;229;26805;-72
2022/01/31 09:05:19;;;;;;;25.97;6.20;;;4.60;99.90;;;;;;626965;229;26570;-73
2022/01/31 09:07:47;;;;;;;20.67;6.60;;;4.50;99.90;;;;;;626177;226;26815;-73
2022/01/31 09:10:14;;;;;;;22.20;5.70;;;4.60;99.90;;;;;;633615;226;26590;-73
2022/01/31 09:12:42;;;;;;;20.07;6.83;;;4.70;99.90;;;;;;629399;226;26610;-72
2022/01/31 09:15:12;;;;;;;28.87;8.00;;;4.80;99.90;;;;;;626835;229;26543;-72
2022/01/31 09:17:37;;;;;;;29.27;6.90;;;4.70;99.90;;;;;;628788;226;26571;-72
2022/01/31 09:20:05;;;;;;;19.00;5.90;;;4.80;99.90;;;;;;630504;223;26839;-72
2022/01/31 09:22:32;;;;;;;20.33;7.47;;;4.90;99.90;;;;;;630553;226;26628;-72
2022/01/31 09:24:59;;;;;;;18.10;6.13;;;4.90;99.90;;;;;;628394;228;26848;-72
2022/01/31 09:27:28;;;;;;;23.87;7.03;;;5.00;99.90;;;;;;627140;228;26580;-72
2022/01/31 09:29:54;;;;;;;22.60;7.13;;;5.00;99.90;;;;;;626457;228;26824;-72
2022/01/31 09:32:24;;;;;;;23.57;6.80;;;5.10;99.90;;;;;;632316;224;26609;-67
2022/01/31 09:34:50;;;;;;;20.47;6.90;;;5.10;99.90;;;;;;632209;225;26552;-72
2022/01/31 09:37:19;;;;;;;19.73;7.50;;;5.10;99.90;;;;;;626664;228;26626;-73
2022/01/31 09:39:46;;;;;;;23.37;6.63;;;5.20;99.90;;;;;;634231;226;26646;-73
2022/01/31 09:42:15;;;;;;;26.90;6.40;;;5.20;99.90;;;;;;632664;225;26853;-73
2022/01/31 09:44:50;;;;;;;25.27;6.70;;;5.20;99.90;;;;;;628581;228;26535;-72
2022/01/31 09:49:43;;;;;;;24.03;6.53;;;5.30;99.90;;;;;;633637;226;26855;-72
2022/01/31 09:52:11;;;;;;;20.30;6.07;;;5.30;99.90;;;;;;635546;226;26561;-72
2022/01/31 09:54:38;;;;;;;21.10;6.87;;;5.40;99.90;;;;;;635498;226;26880;-73
2022/01/31 09:57:06;;;;;;;20.43;6.13;;;5.40;99.90;;;;;;632885;226;26535;-72
2022/01/31 09:59:33;;;;;;;19.80;6.30;;;5.40;99.90;;;;;;627011;229;26767;-73
2022/01/31 10:02:01;;;;;;;15.77;5.60;;;5.40;99.90;;;;;;625570;229;26888;-73
2022/01/31 10:04:30;;;;;;;23.27;8.27;;;5.50;99.90;;;;;;633243;226;26553;-73
2022/01/31 10:06:55;;;;;;;20.17;6.03;;;5.50;99.90;;;;;;630903;226;26546;-73
2022/01/31 10:09:23;;;;;;;16.70;6.13;;;5.50;99.90;;;;;;635599;226;26561;-73
2022/01/31 10:11:53;;;;;;;21.17;6.13;;;5.50;99.90;;;;;;633849;226;26582;-73
2022/01/31 10:16:59;;;;;;;25.10;6.53;;;5.50;99.90;;;;;;629254;229;26573;-71
2022/01/31 10:19:26;;;;;;;28.60;6.27;;;5.40;99.90;;;;;;633937;225;26789;-71
2022/01/31 10:21:56;;;;;;;17.30;6.30;;;5.50;99.90;;;;;;630576;225;26607;-66
2022/01/31 10:24:23;;;;;;;20.80;6.40;;;5.40;99.90;;;;;;633872;226;26803;-66
2022/01/31 10:26:51;;;;;;;28.10;6.93;;;5.50;99.90;;;;;;625552;228;26531;-66
2022/01/31 10:29:19;;;;;;;20.77;6.50;;;5.60;99.90;;;;;;625740;227;26547;-66
2022/01/31 10:31:54;;;;;;;20.97;7.10;;;5.60;99.90;;;;;;629370;226;26601;-66
2022/01/31 10:34:24;;;;;;;25.40;7.43;;;5.60;99.90;;;;;;629775;228;26547;-67
2022/01/31 10:36:48;;;;;;;21.87;7.43;;;5.60;99.90;;;;;;627231;228;26547;-67
2022/01/31 10:43:26;;;;;;;26.50;7.53;;;5.60;99.90;;;;;;629624;228;27213;-67
2022/01/31 10:44:56;;;;;;;24.10;6.53;;;5.60;99.90;;;;;;630558;225;26547;-68
2022/01/31 10:52:10;;;;;;;22.20;7.07;;;5.60;99.90;;;;;;629219;225;26566;-67
2022/01/31 10:54:39;;;;;;;17.73;6.13;;;5.70;99.90;;;;;;627067;226;26535;-67
2022/01/31 10:57:03;;;;;;;23.63;6.97;;;5.70;99.90;;;;;;635324;226;26812;-67
2022/01/31 10:59:33;;;;;;;24.20;7.97;;;5.80;99.90;;;;;;630324;226;26611;-67
2022/01/31 11:02:00;;;;;;;17.43;6.80;;;5.80;99.90;;;;;;628351;228;26539;-67
2022/01/31 11:04:32;;;;;;;21.67;7.00;;;5.90;99.90;;;;;;627073;226;26599;-67
2022/01/31 11:06:59;;;;;;;25.97;6.60;;;5.80;99.90;;;;;;633220;226;26606;-67
2022/01/31 11:09:26;;;;;;;23.90;6.70;;;5.90;99.90;;;;;;631996;226;26817;-67
2022/01/31 11:11:53;;;;;;;22.07;7.03;;;6.00;99.90;;;;;;627716;226;26639;-68
2022/01/31 11:14:21;;;;;;;24.93;7.30;;;6.00;99.90;;;;;;625166;228;26822;-66
2022/01/31 11:16:49;;;;;;;19.63;6.50;;;6.20;99.90;;;;;;625161;229;26556;-67
2022/01/31 11:19:23;;;;;;;22.00;6.73;;;6.30;99.90;;;;;;625188;228;26555;-67
2022/01/31 11:21:45;;;;;;;16.07;6.13;;;6.40;99.90;;;;;;627908;226;26644;-66
2022/01/31 11:24:19;;;;;;;16.00;6.53;;;6.30;99.90;;;;;;635444;226;26883;-66
2022/01/31 11:26:44;;;;;;;23.20;7.03;;;6.50;99.90;;;;;;635526;226;26564;-67
2022/01/31 11:29:11;;;;;;;18.10;6.93;;;6.60;99.90;;;;;;635244;226;26548;-67
2022/01/31 11:31:38;;;;;;;22.07;6.53;;;6.60;99.90;;;;;;635446;226;27214;-68
2022/01/31 11:34:05;;;;;;;19.40;6.23;;;6.70;99.90;;;;;;635333;226;26603;-67
2022/01/31 11:36:34;;;;;;;17.77;6.20;;;6.70;99.90;;;;;;635281;225;26847;-66
2022/01/31 11:39:01;;;;;;;21.87;6.90;;;6.80;99.90;;;;;;635221;226;26558;-66
2022/01/31 11:41:29;;;;;;;17.97;6.63;;;6.70;99.90;;;;;;635913;224;26805;-66
2022/01/31 11:43:56;;;;;;;22.07;6.90;;;6.70;99.90;;;;;;636870;225;26591;-66
2022/01/31 11:46:25;;;;;;;21.57;6.20;;;6.70;99.90;;;;;;636174;226;27267;-67
2022/01/31 11:48:53;;;;;;;19.00;5.73;;;6.60;99.90;;;;;;636213;226;26617;-67
2022/01/31 11:51:20;;;;;;;19.27;5.93;;;6.70;99.90;;;;;;636061;226;26868;-67
2022/01/31 11:53:48;;;;;;;16.27;6.33;;;6.70;99.90;;;;;;635994;226;26758;-67
2022/01/31 11:56:18;;;;;;;20.53;6.73;;;6.80;99.90;;;;;;636010;226;26847;-67
2022/01/31 11:58:45;;;;;;;17.37;5.70;;;7.00;99.90;;;;;;635790;226;26597;-67
2022/01/31 12:01:12;;;;;;;22.53;6.13;;;7.10;99.90;;;;;;635548;226;26825;-67
2022/01/31 12:03:49;;;;;;;18.50;6.27;;;7.20;99.90;;;;;;635673;226;26619;-68
2022/01/31 12:06:18;;;;;;;22.63;7.17;;;7.40;99.90;;;;;;635587;226;26542;-67
2022/01/31 12:08:45;;;;;;;22.30;6.73;;;7.40;99.90;;;;;;635338;226;26693;-67
2022/01/31 12:11:17;;;;;;;21.67;7.00;;;7.40;99.90;;;;;;635682;226;26773;-67
2022/01/31 12:13:45;;;;;;;16.60;6.63;;;7.50;99.90;;;;;;626178;226;26620;-67
2022/01/31 12:16:48;;;;;;;19.40;6.87;;;7.50;99.90;;;;;;625377;229;26581;-67
2022/01/31 12:19:34;;;;;;;18.90;7.07;;;7.50;99.90;;;;;;625239;229;26610;-68
2022/01/31 12:22:00;;;;;;;23.50;7.43;;;7.50;99.90;;;;;;629365;226;26573;-67
2022/01/31 12:24:31;;;;;;;18.87;6.80;;;7.60;99.90;;;;;;635304;226;26545;-68
2022/01/31 12:27:05;;;;;;;22.40;7.13;;;7.60;99.90;;;;;;635284;226;27176;-68
2022/01/31 12:29:33;;;;;;;21.93;7.20;;;7.60;99.90;;;;;;635653;226;26773;-68
2022/01/31 12:32:13;;;;;;;22.17;7.00;;;7.60;99.90;;;;;;635641;225;26573;-68
2022/01/31 12:34:40;;;;;;;22.83;6.03;;;7.60;99.90;;;;;;635662;226;26512;-68
2022/01/31 12:37:16;;;;;;;22.67;7.10;;;7.50;99.90;;;;;;635551;226;26548;-68
2022/01/31 12:39:45;;;;;;;23.30;6.97;;;7.60;99.90;;;;;;635618;226;26512;-67
2022/01/31 12:42:31;;;;;;;22.80;7.77;;;7.40;99.90;;;;;;635558;226;26563;-67
2022/01/31 12:44:49;;;;;;;20.40;7.03;;;7.40;99.90;;;;;;634989;226;26505;-67
2022/01/31 12:47:17;;;;;;;15.37;6.67;;;7.40;99.90;;;;;;635725;226;26549;-67
2022/01/31 12:49:44;;;;;;;17.40;6.23;;;7.40;99.90;;;;;;635140;226;26901;-67
2022/01/31 12:52:13;;;;;;;22.07;6.47;;;7.30;99.90;;;;;;635342;226;26556;-67
2022/01/31 12:54:42;;;;;;;23.40;6.57;;;7.30;99.90;;;;;;637183;224;26602;-67
2022/01/31 12:57:10;;;;;;;21.67;7.37;;;7.20;99.90;;;;;;636506;226;26604;-67
2022/01/31 12:59:36;;;;;;;20.30;7.53;;;7.20;99.90;;;;;;636111;226;26827;-67
2022/01/31 13:02:04;;;;;;;18.80;6.83;;;7.00;99.90;;;;;;636152;226;26605;-67
2022/01/31 13:04:32;;;;;;;21.83;7.43;;;7.00;99.90;;;;;;635923;226;26586;-67
2022/01/31 13:07:00;;;;;;;23.90;7.00;;;6.90;99.90;;;;;;635975;226;26569;-67